sensor_id;sensor_type;location;lat;lon;timestamp;P1;durP1;ratioP1;P2;durP2;ratioP2
21848;SDS011;11089;49.852;19.700;2023-10-13T00:00:44;7.30;;;4.70;;
21848;SDS011;11089;49.852;19.700;2023-10-13T00:03:45;10.73;;;4.80;;
21848;SDS011;11089;49.852;19.700;2023-10-13T00:06:46;9.75;;;5.38;;
21848;SDS011;11089;49.852;19.700;2023-10-13T00:09:47;8.23;;;4.65;;
21848;SDS011;11089;49.852;19.700;2023-10-13T00:12:48;11.73;;;4.38;;
21848;SDS011;11089;49.852;19.700;2023-10-13T00:15:52;10.45;;;5.32;;
21848;SDS011;11089;49.852;19.700;2023-10-13T00:18:55;11.07;;;5.22;;
21848;SDS011;11089;49.852;19.700;2023-10-13T00:21:59;9.45;;;4.95;;
21848;SDS011;11089;49.852;19.700;2023-10-13T00:25:09;9.80;;;4.80;;
21848;SDS011;11089;49.852;19.700;2023-10-13T00:28:19;11.73;;;4.97;;
21848;SDS011;11089;49.852;19.700;2023-10-13T00:31:27;11.18;;;5.13;;
21848;SDS011;11089;49.852;19.700;2023-10-13T00:34:33;11.93;;;5.00;;
21848;SDS011;11089;49.852;19.700;2023-10-13T00:37:37;10.13;;;5.15;;
21848;SDS011;11089;49.852;19.700;2023-10-13T00:40:44;10.25;;;4.50;;
21848;SDS011;11089;49.852;19.700;2023-10-13T00:43:52;9.55;;;4.68;;
21848;SDS011;11089;49.852;19.700;2023-10-13T00:47:08;9.70;;;4.65;;
21848;SDS011;11089;49.852;19.700;2023-10-13T00:50:17;11.20;;;5.30;;
21848;SDS011;11089;49.852;19.700;2023-10-13T00:53:18;9.48;;;4.55;;
21848;SDS011;11089;49.852;19.700;2023-10-13T00:56:21;7.47;;;4.63;;
21848;SDS011;11089;49.852;19.700;2023-10-13T00:59:27;7.30;;;4.60;;
21848;SDS011;11089;49.852;19.700;2023-10-13T01:02:27;9.55;;;5.07;;
21848;SDS011;11089;49.852;19.700;2023-10-13T01:05:42;13.15;;;5.07;;
21848;SDS011;11089;49.852;19.700;2023-10-13T01:08:46;11.43;;;5.07;;
21848;SDS011;11089;49.852;19.700;2023-10-13T01:11:54;10.55;;;5.10;;
21848;SDS011;11089;49.852;19.700;2023-10-13T01:14:55;9.95;;;4.50;;
21848;SDS011;11089;49.852;19.700;2023-10-13T01:18:07;11.02;;;5.47;;
21848;SDS011;11089;49.852;19.700;2023-10-13T01:21:13;11.70;;;5.30;;
21848;SDS011;11089;49.852;19.700;2023-10-13T01:24:16;10.68;;;5.35;;
21848;SDS011;11089;49.852;19.700;2023-10-13T01:27:19;10.90;;;5.95;;
21848;SDS011;11089;49.852;19.700;2023-10-13T01:30:26;9.73;;;5.75;;
21848;SDS011;11089;49.852;19.700;2023-10-13T01:33:28;11.40;;;5.90;;
21848;SDS011;11089;49.852;19.700;2023-10-13T01:36:29;12.73;;;5.85;;
21848;SDS011;11089;49.852;19.700;2023-10-13T01:39:35;11.05;;;5.32;;
21848;SDS011;11089;49.852;19.700;2023-10-13T01:42:36;9.15;;;5.30;;
21848;SDS011;11089;49.852;19.700;2023-10-13T01:45:37;10.20;;;5.75;;
21848;SDS011;11089;49.852;19.700;2023-10-13T01:48:49;9.20;;;4.80;;
21848;SDS011;11089;49.852;19.700;2023-10-13T01:51:54;10.05;;;5.47;;
21848;SDS011;11089;49.852;19.700;2023-10-13T01:54:55;9.52;;;5.07;;
21848;SDS011;11089;49.852;19.700;2023-10-13T01:57:58;11.10;;;5.18;;
21848;SDS011;11089;49.852;19.700;2023-10-13T02:00:59;10.30;;;5.05;;
21848;SDS011;11089;49.852;19.700;2023-10-13T02:04:01;13.55;;;6.13;;
21848;SDS011;11089;49.852;19.700;2023-10-13T02:07:06;10.80;;;5.40;;
21848;SDS011;11089;49.852;19.700;2023-10-13T02:10:09;10.85;;;5.90;;
21848;SDS011;11089;49.852;19.700;2023-10-13T02:13:13;11.75;;;5.70;;
21848;SDS011;11089;49.852;19.700;2023-10-13T02:16:18;12.23;;;5.43;;
21848;SDS011;11089;49.852;19.700;2023-10-13T02:19:22;9.07;;;4.93;;
21848;SDS011;11089;49.852;19.700;2023-10-13T02:22:27;8.50;;;5.35;;
21848;SDS011;11089;49.852;19.700;2023-10-13T02:25:29;12.13;;;5.30;;
21848;SDS011;11089;49.852;19.700;2023-10-13T02:28:43;12.35;;;5.60;;
21848;SDS011;11089;49.852;19.700;2023-10-13T02:31:51;10.75;;;5.13;;
21848;SDS011;11089;49.852;19.700;2023-10-13T02:34:57;11.05;;;6.15;;
21848;SDS011;11089;49.852;19.700;2023-10-13T02:38:08;14.40;;;5.60;;
21848;SDS011;11089;49.852;19.700;2023-10-13T02:41:12;10.70;;;5.18;;
21848;SDS011;11089;49.852;19.700;2023-10-13T02:44:29;10.02;;;4.95;;
21848;SDS011;11089;49.852;19.700;2023-10-13T02:47:32;11.20;;;5.35;;
21848;SDS011;11089;49.852;19.700;2023-10-13T02:50:33;9.00;;;5.22;;
21848;SDS011;11089;49.852;19.700;2023-10-13T02:53:33;9.13;;;5.50;;
21848;SDS011;11089;49.852;19.700;2023-10-13T02:56:34;12.15;;;5.95;;
21848;SDS011;11089;49.852;19.700;2023-10-13T02:59:36;13.23;;;5.90;;
21848;SDS011;11089;49.852;19.700;2023-10-13T03:02:40;13.20;;;6.28;;
21848;SDS011;11089;49.852;19.700;2023-10-13T03:05:58;10.70;;;5.75;;
21848;SDS011;11089;49.852;19.700;2023-10-13T03:09:02;11.43;;;5.53;;
21848;SDS011;11089;49.852;19.700;2023-10-13T03:12:18;10.70;;;5.47;;
21848;SDS011;11089;49.852;19.700;2023-10-13T03:15:20;11.77;;;5.32;;
21848;SDS011;11089;49.852;19.700;2023-10-13T03:18:28;11.32;;;5.25;;
21848;SDS011;11089;49.852;19.700;2023-10-13T03:21:33;7.80;;;4.90;;
21848;SDS011;11089;49.852;19.700;2023-10-13T03:24:37;12.20;;;5.35;;
21848;SDS011;11089;49.852;19.700;2023-10-13T03:27:45;9.85;;;5.15;;
21848;SDS011;11089;49.852;19.700;2023-10-13T03:30:52;7.53;;;5.00;;
21848;SDS011;11089;49.852;19.700;2023-10-13T03:33:53;8.90;;;5.95;;
21848;SDS011;11089;49.852;19.700;2023-10-13T03:36:59;14.05;;;6.63;;
21848;SDS011;11089;49.852;19.700;2023-10-13T03:40:12;12.98;;;5.35;;
21848;SDS011;11089;49.852;19.700;2023-10-13T03:43:22;11.88;;;5.57;;
21848;SDS011;11089;49.852;19.700;2023-10-13T03:46:23;9.27;;;5.28;;
21848;SDS011;11089;49.852;19.700;2023-10-13T03:49:26;11.00;;;5.78;;
21848;SDS011;11089;49.852;19.700;2023-10-13T03:52:29;12.43;;;5.85;;
21848;SDS011;11089;49.852;19.700;2023-10-13T03:55:36;13.10;;;5.30;;
21848;SDS011;11089;49.852;19.700;2023-10-13T03:58:37;9.68;;;6.28;;
21848;SDS011;11089;49.852;19.700;2023-10-13T04:01:39;11.65;;;5.75;;
21848;SDS011;11089;49.852;19.700;2023-10-13T04:04:43;8.70;;;4.93;;
21848;SDS011;11089;49.852;19.700;2023-10-13T04:07:49;8.30;;;4.80;;
21848;SDS011;11089;49.852;19.700;2023-10-13T04:11:04;14.00;;;6.25;;
21848;SDS011;11089;49.852;19.700;2023-10-13T04:14:17;9.98;;;4.88;;
21848;SDS011;11089;49.852;19.700;2023-10-13T04:17:44;8.35;;;5.03;;
21848;SDS011;11089;49.852;19.700;2023-10-13T04:20:52;7.30;;;4.75;;
21848;SDS011;11089;49.852;19.700;2023-10-13T04:24:07;7.72;;;4.53;;
21848;SDS011;11089;49.852;19.700;2023-10-13T04:27:17;8.23;;;5.13;;
21848;SDS011;11089;49.852;19.700;2023-10-13T04:30:35;9.20;;;5.18;;
21848;SDS011;11089;49.852;19.700;2023-10-13T04:33:52;8.15;;;4.47;;
21848;SDS011;11089;49.852;19.700;2023-10-13T04:36:56;8.07;;;4.93;;
21848;SDS011;11089;49.852;19.700;2023-10-13T04:40:17;9.00;;;4.78;;
21848;SDS011;11089;49.852;19.700;2023-10-13T04:43:26;8.98;;;4.47;;
21848;SDS011;11089;49.852;19.700;2023-10-13T04:46:33;6.95;;;4.55;;
21848;SDS011;11089;49.852;19.700;2023-10-13T04:50:01;9.57;;;4.85;;
21848;SDS011;11089;49.852;19.700;2023-10-13T04:53:22;8.07;;;4.22;;
21848;SDS011;11089;49.852;19.700;2023-10-13T04:56:37;8.10;;;4.60;;
21848;SDS011;11089;49.852;19.700;2023-10-13T04:59:58;6.82;;;3.95;;
21848;SDS011;11089;49.852;19.700;2023-10-13T05:03:14;8.55;;;5.07;;
21848;SDS011;11089;49.852;19.700;2023-10-13T05:06:37;9.27;;;5.43;;
21848;SDS011;11089;49.852;19.700;2023-10-13T05:09:44;7.38;;;4.57;;
21848;SDS011;11089;49.852;19.700;2023-10-13T05:12:59;6.97;;;4.63;;
21848;SDS011;11089;49.852;19.700;2023-10-13T05:16:14;9.45;;;4.75;;
21848;SDS011;11089;49.852;19.700;2023-10-13T05:19:28;8.45;;;4.50;;
21848;SDS011;11089;49.852;19.700;2023-10-13T05:22:43;7.70;;;4.40;;
21848;SDS011;11089;49.852;19.700;2023-10-13T05:26:01;9.80;;;4.50;;
21848;SDS011;11089;49.852;19.700;2023-10-13T05:29:16;8.40;;;4.35;;
21848;SDS011;11089;49.852;19.700;2023-10-13T05:32:30;8.25;;;4.38;;
21848;SDS011;11089;49.852;19.700;2023-10-13T05:35:45;7.90;;;4.72;;
21848;SDS011;11089;49.852;19.700;2023-10-13T05:39:00;7.22;;;4.00;;
21848;SDS011;11089;49.852;19.700;2023-10-13T05:42:14;7.43;;;4.30;;
21848;SDS011;11089;49.852;19.700;2023-10-13T05:45:28;5.82;;;3.90;;
21848;SDS011;11089;49.852;19.700;2023-10-13T05:48:43;6.97;;;3.97;;
21848;SDS011;11089;49.852;19.700;2023-10-13T05:51:58;10.45;;;4.30;;
21848;SDS011;11089;49.852;19.700;2023-10-13T05:55:07;10.27;;;4.32;;
21848;SDS011;11089;49.852;19.700;2023-10-13T05:58:20;6.47;;;4.07;;
21848;SDS011;11089;49.852;19.700;2023-10-13T06:01:35;8.32;;;4.10;;
21848;SDS011;11089;49.852;19.700;2023-10-13T06:04:50;8.40;;;5.05;;
21848;SDS011;11089;49.852;19.700;2023-10-13T06:08:05;6.07;;;3.95;;
21848;SDS011;11089;49.852;19.700;2023-10-13T06:11:21;9.23;;;4.55;;
21848;SDS011;11089;49.852;19.700;2023-10-13T06:14:36;8.68;;;4.43;;
21848;SDS011;11089;49.852;19.700;2023-10-13T06:17:51;12.45;;;5.65;;
21848;SDS011;11089;49.852;19.700;2023-10-13T06:21:06;10.18;;;5.05;;
21848;SDS011;11089;49.852;19.700;2023-10-13T06:24:21;8.77;;;5.15;;
21848;SDS011;11089;49.852;19.700;2023-10-13T06:27:34;10.15;;;4.95;;
21848;SDS011;11089;49.852;19.700;2023-10-13T06:30:56;8.75;;;4.72;;
21848;SDS011;11089;49.852;19.700;2023-10-13T06:33:58;11.10;;;4.85;;
21848;SDS011;11089;49.852;19.700;2023-10-13T06:36:59;12.18;;;6.20;;
21848;SDS011;11089;49.852;19.700;2023-10-13T06:40:01;10.93;;;6.30;;
21848;SDS011;11089;49.852;19.700;2023-10-13T06:43:23;8.75;;;5.20;;
21848;SDS011;11089;49.852;19.700;2023-10-13T06:46:24;11.25;;;5.30;;
21848;SDS011;11089;49.852;19.700;2023-10-13T06:49:28;9.60;;;4.90;;
21848;SDS011;11089;49.852;19.700;2023-10-13T06:52:30;7.38;;;4.63;;
21848;SDS011;11089;49.852;19.700;2023-10-13T06:55:31;8.50;;;5.07;;
21848;SDS011;11089;49.852;19.700;2023-10-13T06:58:35;10.77;;;5.40;;
21848;SDS011;11089;49.852;19.700;2023-10-13T07:01:40;10.80;;;4.50;;
21848;SDS011;11089;49.852;19.700;2023-10-13T07:04:42;8.57;;;4.72;;
21848;SDS011;11089;49.852;19.700;2023-10-13T07:07:43;10.27;;;6.03;;
21848;SDS011;11089;49.852;19.700;2023-10-13T07:10:48;8.70;;;5.07;;
21848;SDS011;11089;49.852;19.700;2023-10-13T07:13:52;7.82;;;4.97;;
21848;SDS011;11089;49.852;19.700;2023-10-13T07:16:57;10.65;;;6.07;;
21848;SDS011;11089;49.852;19.700;2023-10-13T07:20:03;12.32;;;5.28;;
21848;SDS011;11089;49.852;19.700;2023-10-13T07:23:18;10.20;;;4.80;;
21848;SDS011;11089;49.852;19.700;2023-10-13T07:26:20;12.65;;;5.60;;
21848;SDS011;11089;49.852;19.700;2023-10-13T07:29:23;10.25;;;5.10;;
21848;SDS011;11089;49.852;19.700;2023-10-13T07:32:25;11.25;;;5.00;;
21848;SDS011;11089;49.852;19.700;2023-10-13T07:35:26;7.22;;;4.30;;
21848;SDS011;11089;49.852;19.700;2023-10-13T07:38:31;8.48;;;4.97;;
21848;SDS011;11089;49.852;19.700;2023-10-13T07:41:38;8.38;;;4.65;;
21848;SDS011;11089;49.852;19.700;2023-10-13T07:44:42;11.13;;;4.32;;
21848;SDS011;11089;49.852;19.700;2023-10-13T07:47:48;10.25;;;4.55;;
21848;SDS011;11089;49.852;19.700;2023-10-13T07:51:00;8.40;;;5.50;;
21848;SDS011;11089;49.852;19.700;2023-10-13T07:54:16;10.13;;;5.57;;
21848;SDS011;11089;49.852;19.700;2023-10-13T07:57:23;7.82;;;4.43;;
21848;SDS011;11089;49.852;19.700;2023-10-13T08:00:32;8.70;;;4.30;;
21848;SDS011;11089;49.852;19.700;2023-10-13T08:03:47;13.27;;;5.10;;
21848;SDS011;11089;49.852;19.700;2023-10-13T08:07:05;9.73;;;4.97;;
21848;SDS011;11089;49.852;19.700;2023-10-13T08:10:14;8.45;;;4.47;;
21848;SDS011;11089;49.852;19.700;2023-10-13T08:13:17;12.40;;;4.75;;
21848;SDS011;11089;49.852;19.700;2023-10-13T08:16:21;9.40;;;4.57;;
21848;SDS011;11089;49.852;19.700;2023-10-13T08:19:23;9.00;;;4.45;;
21848;SDS011;11089;49.852;19.700;2023-10-13T08:22:27;12.88;;;4.72;;
21848;SDS011;11089;49.852;19.700;2023-10-13T08:25:36;11.63;;;4.75;;
21848;SDS011;11089;49.852;19.700;2023-10-13T08:28:50;7.32;;;4.00;;
21848;SDS011;11089;49.852;19.700;2023-10-13T08:31:54;10.07;;;5.22;;
21848;SDS011;11089;49.852;19.700;2023-10-13T08:35:14;6.95;;;4.38;;
21848;SDS011;11089;49.852;19.700;2023-10-13T08:38:29;7.97;;;4.75;;
21848;SDS011;11089;49.852;19.700;2023-10-13T08:41:30;6.80;;;4.22;;
21848;SDS011;11089;49.852;19.700;2023-10-13T08:44:31;7.10;;;3.97;;
21848;SDS011;11089;49.852;19.700;2023-10-13T08:47:32;7.40;;;4.00;;
21848;SDS011;11089;49.852;19.700;2023-10-13T08:50:43;7.63;;;4.35;;
21848;SDS011;11089;49.852;19.700;2023-10-13T08:53:49;8.43;;;4.00;;
21848;SDS011;11089;49.852;19.700;2023-10-13T08:56:58;10.35;;;4.60;;
21848;SDS011;11089;49.852;19.700;2023-10-13T09:00:08;7.07;;;4.53;;
21848;SDS011;11089;49.852;19.700;2023-10-13T09:03:23;7.60;;;4.30;;
21848;SDS011;11089;49.852;19.700;2023-10-13T09:06:38;7.28;;;4.68;;
21848;SDS011;11089;49.852;19.700;2023-10-13T09:09:46;7.07;;;4.78;;
21848;SDS011;11089;49.852;19.700;2023-10-13T09:12:53;7.07;;;4.18;;
21848;SDS011;11089;49.852;19.700;2023-10-13T09:16:08;8.18;;;5.10;;
21848;SDS011;11089;49.852;19.700;2023-10-13T09:19:45;9.85;;;5.28;;
21848;SDS011;11089;49.852;19.700;2023-10-13T09:22:50;9.25;;;4.65;;
21848;SDS011;11089;49.852;19.700;2023-10-13T09:26:05;8.73;;;4.40;;
21848;SDS011;11089;49.852;19.700;2023-10-13T09:29:18;9.80;;;4.30;;
21848;SDS011;11089;49.852;19.700;2023-10-13T09:32:19;7.90;;;4.13;;
21848;SDS011;11089;49.852;19.700;2023-10-13T09:35:21;5.22;;;3.25;;
21848;SDS011;11089;49.852;19.700;2023-10-13T09:38:26;5.25;;;3.10;;
21848;SDS011;11089;49.852;19.700;2023-10-13T09:41:29;4.90;;;3.50;;
21848;SDS011;11089;49.852;19.700;2023-10-13T09:44:32;11.27;;;3.95;;
21848;SDS011;11089;49.852;19.700;2023-10-13T09:47:34;10.10;;;4.00;;
21848;SDS011;11089;49.852;19.700;2023-10-13T09:50:40;7.10;;;3.80;;
21848;SDS011;11089;49.852;19.700;2023-10-13T09:53:49;7.60;;;3.28;;
21848;SDS011;11089;49.852;19.700;2023-10-13T09:57:13;7.45;;;3.90;;
21848;SDS011;11089;49.852;19.700;2023-10-13T10:00:19;7.70;;;3.85;;
21848;SDS011;11089;49.852;19.700;2023-10-13T10:03:48;7.00;;;3.60;;
21848;SDS011;11089;49.852;19.700;2023-10-13T10:07:07;6.53;;;3.58;;
21848;SDS011;11089;49.852;19.700;2023-10-13T10:10:09;6.30;;;3.72;;
21848;SDS011;11089;49.852;19.700;2023-10-13T10:13:21;6.55;;;3.67;;
21848;SDS011;11089;49.852;19.700;2023-10-13T10:20:04;5.25;;;3.63;;
21848;SDS011;11089;49.852;19.700;2023-10-13T10:23:24;5.97;;;3.50;;
21848;SDS011;11089;49.852;19.700;2023-10-13T10:26:29;6.57;;;3.70;;
21848;SDS011;11089;49.852;19.700;2023-10-13T10:29:30;5.72;;;3.60;;
21848;SDS011;11089;49.852;19.700;2023-10-13T10:32:33;5.68;;;3.38;;
21848;SDS011;11089;49.852;19.700;2023-10-13T10:35:35;5.15;;;3.20;;
21848;SDS011;11089;49.852;19.700;2023-10-13T10:38:37;4.85;;;3.05;;
21848;SDS011;11089;49.852;19.700;2023-10-13T10:41:40;5.72;;;2.92;;
21848;SDS011;11089;49.852;19.700;2023-10-13T10:44:49;5.78;;;3.17;;
21848;SDS011;11089;49.852;19.700;2023-10-13T10:47:55;5.78;;;3.08;;
21848;SDS011;11089;49.852;19.700;2023-10-13T10:50:59;4.57;;;2.88;;
21848;SDS011;11089;49.852;19.700;2023-10-13T10:54:07;5.13;;;2.65;;
21848;SDS011;11089;49.852;19.700;2023-10-13T10:57:18;6.35;;;3.03;;
21848;SDS011;11089;49.852;19.700;2023-10-13T11:00:19;3.60;;;2.88;;
21848;SDS011;11089;49.852;19.700;2023-10-13T11:03:21;4.85;;;2.90;;
21848;SDS011;11089;49.852;19.700;2023-10-13T11:06:23;5.97;;;3.15;;
21848;SDS011;11089;49.852;19.700;2023-10-13T11:09:30;4.28;;;3.00;;
21848;SDS011;11089;49.852;19.700;2023-10-13T11:12:31;6.57;;;3.78;;
21848;SDS011;11089;49.852;19.700;2023-10-13T11:15:40;5.65;;;3.47;;
21848;SDS011;11089;49.852;19.700;2023-10-13T11:18:44;13.80;;;3.83;;
21848;SDS011;11089;49.852;19.700;2023-10-13T11:21:48;6.65;;;3.42;;
21848;SDS011;11089;49.852;19.700;2023-10-13T11:24:49;6.40;;;3.40;;
21848;SDS011;11089;49.852;19.700;2023-10-13T11:27:50;9.30;;;3.53;;
21848;SDS011;11089;49.852;19.700;2023-10-13T11:30:51;6.78;;;3.95;;
21848;SDS011;11089;49.852;19.700;2023-10-13T11:33:51;7.75;;;3.60;;
21848;SDS011;11089;49.852;19.700;2023-10-13T11:36:56;6.78;;;3.80;;
21848;SDS011;11089;49.852;19.700;2023-10-13T11:40:14;4.40;;;3.50;;
21848;SDS011;11089;49.852;19.700;2023-10-13T11:43:36;5.20;;;3.53;;
21848;SDS011;11089;49.852;19.700;2023-10-13T11:46:52;6.38;;;3.72;;
21848;SDS011;11089;49.852;19.700;2023-10-13T11:49:57;8.27;;;3.80;;
21848;SDS011;11089;49.852;19.700;2023-10-13T11:52:59;7.90;;;3.90;;
21848;SDS011;11089;49.852;19.700;2023-10-13T11:56:00;6.65;;;3.50;;
21848;SDS011;11089;49.852;19.700;2023-10-13T11:59:09;7.13;;;3.75;;
21848;SDS011;11089;49.852;19.700;2023-10-13T12:02:24;8.23;;;3.58;;
21848;SDS011;11089;49.852;19.700;2023-10-13T12:05:25;6.25;;;3.90;;
21848;SDS011;11089;49.852;19.700;2023-10-13T12:08:37;12.75;;;4.05;;
21848;SDS011;11089;49.852;19.700;2023-10-13T12:11:49;6.18;;;4.00;;
21848;SDS011;11089;49.852;19.700;2023-10-13T12:14:54;9.02;;;4.07;;
21848;SDS011;11089;49.852;19.700;2023-10-13T12:17:56;8.40;;;3.85;;
21848;SDS011;11089;49.852;19.700;2023-10-13T12:20:58;6.45;;;3.72;;
21848;SDS011;11089;49.852;19.700;2023-10-13T12:24:01;8.35;;;3.90;;
21848;SDS011;11089;49.852;19.700;2023-10-13T12:27:02;5.25;;;3.53;;
21848;SDS011;11089;49.852;19.700;2023-10-13T12:30:18;10.45;;;4.50;;
21848;SDS011;11089;49.852;19.700;2023-10-13T12:33:35;9.40;;;5.53;;
21848;SDS011;11089;49.852;19.700;2023-10-13T12:36:42;9.40;;;4.28;;
21848;SDS011;11089;49.852;19.700;2023-10-13T12:39:53;11.90;;;4.53;;
21848;SDS011;11089;49.852;19.700;2023-10-13T12:43:08;8.23;;;4.28;;
21848;SDS011;11089;49.852;19.700;2023-10-13T12:46:23;7.68;;;3.67;;
21848;SDS011;11089;49.852;19.700;2023-10-13T12:49:38;5.13;;;3.33;;
21848;SDS011;11089;49.852;19.700;2023-10-13T12:52:42;8.45;;;3.58;;
21848;SDS011;11089;49.852;19.700;2023-10-13T12:55:45;7.80;;;3.55;;
21848;SDS011;11089;49.852;19.700;2023-10-13T12:58:46;6.78;;;3.90;;
21848;SDS011;11089;49.852;19.700;2023-10-13T13:01:54;7.72;;;3.95;;
21848;SDS011;11089;49.852;19.700;2023-10-13T13:04:55;7.00;;;3.83;;
21848;SDS011;11089;49.852;19.700;2023-10-13T13:08:02;8.57;;;3.97;;
21848;SDS011;11089;49.852;19.700;2023-10-13T13:11:05;6.03;;;4.07;;
21848;SDS011;11089;49.852;19.700;2023-10-13T13:14:06;5.10;;;3.75;;
21848;SDS011;11089;49.852;19.700;2023-10-13T13:17:10;13.27;;;4.75;;
21848;SDS011;11089;49.852;19.700;2023-10-13T13:20:12;8.57;;;4.57;;
21848;SDS011;11089;49.852;19.700;2023-10-13T13:23:33;8.00;;;4.22;;
21848;SDS011;11089;49.852;19.700;2023-10-13T13:26:34;6.60;;;4.43;;
21848;SDS011;11089;49.852;19.700;2023-10-13T13:29:35;8.80;;;4.13;;
21848;SDS011;11089;49.852;19.700;2023-10-13T13:32:38;5.97;;;3.83;;
21848;SDS011;11089;49.852;19.700;2023-10-13T13:35:41;8.75;;;4.53;;
21848;SDS011;11089;49.852;19.700;2023-10-13T13:38:48;6.88;;;4.15;;
21848;SDS011;11089;49.852;19.700;2023-10-13T13:41:50;8.20;;;4.10;;
21848;SDS011;11089;49.852;19.700;2023-10-13T13:44:57;8.05;;;4.95;;
21848;SDS011;11089;49.852;19.700;2023-10-13T13:47:59;8.65;;;4.20;;
21848;SDS011;11089;49.852;19.700;2023-10-13T13:51:08;6.47;;;4.30;;
21848;SDS011;11089;49.852;19.700;2023-10-13T13:54:15;7.85;;;3.72;;
21848;SDS011;11089;49.852;19.700;2023-10-13T13:57:17;4.18;;;3.50;;
21848;SDS011;11089;49.852;19.700;2023-10-13T14:00:19;6.63;;;3.67;;
21848;SDS011;11089;49.852;19.700;2023-10-13T14:03:46;5.03;;;3.45;;
21848;SDS011;11089;49.852;19.700;2023-10-13T14:06:50;6.63;;;3.90;;
21848;SDS011;11089;49.852;19.700;2023-10-13T14:09:51;5.72;;;3.53;;
21848;SDS011;11089;49.852;19.700;2023-10-13T14:12:52;5.40;;;3.40;;
21848;SDS011;11089;49.852;19.700;2023-10-13T14:15:53;7.38;;;4.10;;
21848;SDS011;11089;49.852;19.700;2023-10-13T14:18:56;10.15;;;3.92;;
21848;SDS011;11089;49.852;19.700;2023-10-13T14:21:58;7.80;;;3.88;;
21848;SDS011;11089;49.852;19.700;2023-10-13T14:25:06;7.20;;;3.88;;
21848;SDS011;11089;49.852;19.700;2023-10-13T14:28:09;6.88;;;3.78;;
21848;SDS011;11089;49.852;19.700;2023-10-13T14:31:11;5.93;;;4.03;;
21848;SDS011;11089;49.852;19.700;2023-10-13T14:34:14;6.80;;;4.57;;
21848;SDS011;11089;49.852;19.700;2023-10-13T14:37:15;6.45;;;3.63;;
21848;SDS011;11089;49.852;19.700;2023-10-13T14:40:26;6.38;;;4.00;;
21848;SDS011;11089;49.852;19.700;2023-10-13T14:43:28;11.27;;;4.45;;
21848;SDS011;11089;49.852;19.700;2023-10-13T14:46:29;11.15;;;4.88;;
21848;SDS011;11089;49.852;19.700;2023-10-13T14:49:31;7.85;;;4.22;;
21848;SDS011;11089;49.852;19.700;2023-10-13T14:52:32;6.55;;;3.90;;
21848;SDS011;11089;49.852;19.700;2023-10-13T14:55:33;8.57;;;4.60;;
21848;SDS011;11089;49.852;19.700;2023-10-13T14:58:38;7.45;;;4.07;;
21848;SDS011;11089;49.852;19.700;2023-10-13T15:01:42;21.67;;;4.40;;
21848;SDS011;11089;49.852;19.700;2023-10-13T15:04:43;8.93;;;4.20;;
21848;SDS011;11089;49.852;19.700;2023-10-13T15:07:48;8.27;;;3.90;;
21848;SDS011;11089;49.852;19.700;2023-10-13T15:10:49;10.55;;;4.13;;
21848;SDS011;11089;49.852;19.700;2023-10-13T15:13:50;8.25;;;4.47;;
21848;SDS011;11089;49.852;19.700;2023-10-13T15:16:52;10.80;;;5.00;;
21848;SDS011;11089;49.852;19.700;2023-10-13T15:19:53;8.80;;;4.78;;
21848;SDS011;11089;49.852;19.700;2023-10-13T15:22:55;10.48;;;4.72;;
21848;SDS011;11089;49.852;19.700;2023-10-13T15:26:03;7.40;;;3.88;;
21848;SDS011;11089;49.852;19.700;2023-10-13T15:29:09;5.90;;;4.00;;
21848;SDS011;11089;49.852;19.700;2023-10-13T15:32:12;8.38;;;4.30;;
21848;SDS011;11089;49.852;19.700;2023-10-13T15:35:37;8.18;;;4.30;;
21848;SDS011;11089;49.852;19.700;2023-10-13T15:38:39;9.82;;;4.47;;
21848;SDS011;11089;49.852;19.700;2023-10-13T15:41:40;7.50;;;4.10;;
21848;SDS011;11089;49.852;19.700;2023-10-13T15:44:41;7.75;;;4.57;;
21848;SDS011;11089;49.852;19.700;2023-10-13T15:47:44;9.55;;;4.72;;
21848;SDS011;11089;49.852;19.700;2023-10-13T15:50:46;7.68;;;4.25;;
21848;SDS011;11089;49.852;19.700;2023-10-13T15:53:49;8.70;;;4.72;;
21848;SDS011;11089;49.852;19.700;2023-10-13T15:56:51;7.22;;;4.30;;
21848;SDS011;11089;49.852;19.700;2023-10-13T15:59:52;10.57;;;4.47;;
21848;SDS011;11089;49.852;19.700;2023-10-13T16:02:53;9.50;;;4.78;;
21848;SDS011;11089;49.852;19.700;2023-10-13T16:05:57;8.25;;;4.60;;
21848;SDS011;11089;49.852;19.700;2023-10-13T16:08:57;11.30;;;5.07;;
21848;SDS011;11089;49.852;19.700;2023-10-13T16:11:59;12.88;;;4.95;;
21848;SDS011;11089;49.852;19.700;2023-10-13T16:15:00;7.38;;;4.55;;
21848;SDS011;11089;49.852;19.700;2023-10-13T16:18:01;6.65;;;4.10;;
21848;SDS011;11089;49.852;19.700;2023-10-13T16:21:06;13.52;;;5.15;;
21848;SDS011;11089;49.852;19.700;2023-10-13T16:24:08;10.63;;;4.80;;
21848;SDS011;11089;49.852;19.700;2023-10-13T16:27:11;9.63;;;4.47;;
21848;SDS011;11089;49.852;19.700;2023-10-13T16:30:14;7.60;;;5.10;;
21848;SDS011;11089;49.852;19.700;2023-10-13T16:33:15;9.82;;;4.43;;
21848;SDS011;11089;49.852;19.700;2023-10-13T16:36:18;8.32;;;4.40;;
21848;SDS011;11089;49.852;19.700;2023-10-13T16:39:21;9.18;;;4.43;;
21848;SDS011;11089;49.852;19.700;2023-10-13T16:42:22;9.05;;;4.88;;
21848;SDS011;11089;49.852;19.700;2023-10-13T16:45:23;7.57;;;4.35;;
21848;SDS011;11089;49.852;19.700;2023-10-13T16:48:25;8.65;;;4.30;;
21848;SDS011;11089;49.852;19.700;2023-10-13T16:51:31;7.32;;;4.60;;
21848;SDS011;11089;49.852;19.700;2023-10-13T16:54:32;8.45;;;4.30;;
21848;SDS011;11089;49.852;19.700;2023-10-13T16:57:35;8.77;;;4.15;;
21848;SDS011;11089;49.852;19.700;2023-10-13T17:00:36;9.65;;;4.22;;
21848;SDS011;11089;49.852;19.700;2023-10-13T17:03:43;10.10;;;4.50;;
21848;SDS011;11089;49.852;19.700;2023-10-13T17:06:47;11.02;;;5.15;;
21848;SDS011;11089;49.852;19.700;2023-10-13T17:09:47;12.70;;;5.45;;
21848;SDS011;11089;49.852;19.700;2023-10-13T17:12:48;12.68;;;5.70;;
21848;SDS011;11089;49.852;19.700;2023-10-13T17:15:49;15.13;;;6.20;;
21848;SDS011;11089;49.852;19.700;2023-10-13T17:18:51;10.90;;;6.00;;
21848;SDS011;11089;49.852;19.700;2023-10-13T17:21:52;13.98;;;5.15;;
21848;SDS011;11089;49.852;19.700;2023-10-13T17:24:53;11.63;;;5.28;;
21848;SDS011;11089;49.852;19.700;2023-10-13T17:27:54;10.23;;;5.35;;
21848;SDS011;11089;49.852;19.700;2023-10-13T17:30:55;9.88;;;5.00;;
21848;SDS011;11089;49.852;19.700;2023-10-13T17:33:56;10.73;;;5.00;;
21848;SDS011;11089;49.852;19.700;2023-10-13T17:36:59;10.40;;;4.72;;
21848;SDS011;11089;49.852;19.700;2023-10-13T17:40:01;11.07;;;4.72;;
21848;SDS011;11089;49.852;19.700;2023-10-13T17:43:03;12.63;;;4.63;;
21848;SDS011;11089;49.852;19.700;2023-10-13T17:46:05;11.05;;;4.55;;
21848;SDS011;11089;49.852;19.700;2023-10-13T17:49:07;8.35;;;5.13;;
21848;SDS011;11089;49.852;19.700;2023-10-13T17:52:08;9.55;;;4.85;;
21848;SDS011;11089;49.852;19.700;2023-10-13T17:55:10;10.57;;;4.90;;
21848;SDS011;11089;49.852;19.700;2023-10-13T17:58:11;8.70;;;4.55;;
21848;SDS011;11089;49.852;19.700;2023-10-13T18:01:13;10.00;;;5.07;;
21848;SDS011;11089;49.852;19.700;2023-10-13T18:04:19;10.43;;;5.30;;
21848;SDS011;11089;49.852;19.700;2023-10-13T18:07:20;9.38;;;4.20;;
21848;SDS011;11089;49.852;19.700;2023-10-13T18:10:23;10.27;;;4.70;;
21848;SDS011;11089;49.852;19.700;2023-10-13T18:13:24;9.30;;;4.47;;
21848;SDS011;11089;49.852;19.700;2023-10-13T18:16:25;13.32;;;5.40;;
21848;SDS011;11089;49.852;19.700;2023-10-13T18:19:26;15.93;;;5.38;;
21848;SDS011;11089;49.852;19.700;2023-10-13T18:22:27;12.10;;;4.68;;
21848;SDS011;11089;49.852;19.700;2023-10-13T18:25:28;13.68;;;4.78;;